sensor_id;sensor_type;location;lat;lon;timestamp;temperature;humidity
15172;DHT22;7686;52.184;9.280;2023-04-01T00:01:24;26.60;38.90
15172;DHT22;7686;52.184;9.280;2023-04-01T00:03:51;26.60;38.90
15172;DHT22;7686;52.184;9.280;2023-04-01T00:06:18;26.60;38.90
15172;DHT22;7686;52.184;9.280;2023-04-01T00:08:46;26.60;38.90
15172;DHT22;7686;52.184;9.280;2023-04-01T00:11:13;26.60;39.00
15172;DHT22;7686;52.184;9.280;2023-04-01T00:13:42;26.60;39.70
15172;DHT22;7686;52.184;9.280;2023-04-01T00:16:09;26.50;38.90
15172;DHT22;7686;52.184;9.280;2023-04-01T00:18:47;26.50;38.90
15172;DHT22;7686;52.184;9.280;2023-04-01T00:21:15;26.50;38.90
15172;DHT22;7686;52.184;9.280;2023-04-01T00:23:42;26.50;38.90
15172;DHT22;7686;52.184;9.280;2023-04-01T00:26:09;26.50;38.90
15172;DHT22;7686;52.184;9.280;2023-04-01T00:28:38;26.50;38.90
15172;DHT22;7686;52.184;9.280;2023-04-01T00:31:08;26.50;38.90
15172;DHT22;7686;52.184;9.280;2023-04-01T00:33:36;26.50;38.90
15172;DHT22;7686;52.184;9.280;2023-04-01T00:36:15;26.50;38.90
15172;DHT22;7686;52.184;9.280;2023-04-01T00:38:43;26.60;39.00
15172;DHT22;7686;52.184;9.280;2023-04-01T00:41:11;26.50;38.90
15172;DHT22;7686;52.184;9.280;2023-04-01T00:43:43;26.50;38.90
15172;DHT22;7686;52.184;9.280;2023-04-01T00:46:10;26.50;38.90
15172;DHT22;7686;52.184;9.280;2023-04-01T00:48:41;26.40;38.90
15172;DHT22;7686;52.184;9.280;2023-04-01T00:51:15;26.50;39.00
15172;DHT22;7686;52.184;9.280;2023-04-01T00:53:45;26.50;39.00
15172;DHT22;7686;52.184;9.280;2023-04-01T00:56:19;26.40;38.90
15172;DHT22;7686;52.184;9.280;2023-04-01T00:58:57;26.40;38.90
15172;DHT22;7686;52.184;9.280;2023-04-01T01:01:24;26.40;38.90
15172;DHT22;7686;52.184;9.280;2023-04-01T01:03:52;26.40;39.60
15172;DHT22;7686;52.184;9.280;2023-04-01T01:09:14;26.40;38.90
15172;DHT22;7686;52.184;9.280;2023-04-01T01:11:44;26.40;38.90
15172;DHT22;7686;52.184;9.280;2023-04-01T01:14:58;26.40;38.90
15172;DHT22;7686;52.184;9.280;2023-04-01T01:29:14;26.40;38.80
15172;DHT22;7686;52.184;9.280;2023-04-01T01:32:59;26.40;38.80
15172;DHT22;7686;52.184;9.280;2023-04-01T01:37:43;26.40;38.80
15172;DHT22;7686;52.184;9.280;2023-04-01T01:40:12;26.40;38.90
15172;DHT22;7686;52.184;9.280;2023-04-01T01:42:43;26.30;38.80
15172;DHT22;7686;52.184;9.280;2023-04-01T01:45:13;26.40;38.90
15172;DHT22;7686;52.184;9.280;2023-04-01T01:47:42;26.40;38.90
15172;DHT22;7686;52.184;9.280;2023-04-01T01:50:10;26.30;38.80
15172;DHT22;7686;52.184;9.280;2023-04-01T01:52:38;26.30;38.80
15172;DHT22;7686;52.184;9.280;2023-04-01T01:55:30;26.30;38.80
15172;DHT22;7686;52.184;9.280;2023-04-01T01:58:00;26.30;38.90
15172;DHT22;7686;52.184;9.280;2023-04-01T02:00:28;26.30;38.80
15172;DHT22;7686;52.184;9.280;2023-04-01T02:02:56;26.30;38.80
15172;DHT22;7686;52.184;9.280;2023-04-01T02:05:26;26.30;38.80
15172;DHT22;7686;52.184;9.280;2023-04-01T02:08:12;26.30;38.80
15172;DHT22;7686;52.184;9.280;2023-04-01T02:10:42;26.30;38.80
15172;DHT22;7686;52.184;9.280;2023-04-01T02:13:29;26.30;38.80
15172;DHT22;7686;52.184;9.280;2023-04-01T02:16:00;26.30;38.80
15172;DHT22;7686;52.184;9.280;2023-04-01T02:18:29;26.30;38.80
15172;DHT22;7686;52.184;9.280;2023-04-01T02:20:57;26.30;38.80
15172;DHT22;7686;52.184;9.280;2023-04-01T02:23:24;26.40;38.80
15172;DHT22;7686;52.184;9.280;2023-04-01T02:25:51;26.30;38.80
15172;DHT22;7686;52.184;9.280;2023-04-01T02:28:19;26.30;38.80
15172;DHT22;7686;52.184;9.280;2023-04-01T02:30:48;26.30;38.80
15172;DHT22;7686;52.184;9.280;2023-04-01T02:33:16;26.30;38.80
15172;DHT22;7686;52.184;9.280;2023-04-01T02:35:43;26.20;39.50
15172;DHT22;7686;52.184;9.280;2023-04-01T02:38:10;26.30;38.80
15172;DHT22;7686;52.184;9.280;2023-04-01T02:40:45;26.30;38.80
15172;DHT22;7686;52.184;9.280;2023-04-01T02:43:12;26.20;38.80
15172;DHT22;7686;52.184;9.280;2023-04-01T02:45:39;26.30;38.80
15172;DHT22;7686;52.184;9.280;2023-04-01T02:48:06;26.30;38.80
15172;DHT22;7686;52.184;9.280;2023-04-01T02:50:33;26.20;38.70
15172;DHT22;7686;52.184;9.280;2023-04-01T02:53:01;26.20;38.80
15172;DHT22;7686;52.184;9.280;2023-04-01T02:55:29;26.20;38.80
15172;DHT22;7686;52.184;9.280;2023-04-01T02:57:58;26.20;38.70
15172;DHT22;7686;52.184;9.280;2023-04-01T03:00:25;26.20;38.70
15172;DHT22;7686;52.184;9.280;2023-04-01T03:02:52;26.20;38.70
15172;DHT22;7686;52.184;9.280;2023-04-01T03:05:19;26.20;38.70
15172;DHT22;7686;52.184;9.280;2023-04-01T03:07:46;26.20;38.70
15172;DHT22;7686;52.184;9.280;2023-04-01T03:10:13;26.20;38.70
15172;DHT22;7686;52.184;9.280;2023-04-01T03:12:40;26.20;38.80
15172;DHT22;7686;52.184;9.280;2023-04-01T03:15:08;26.20;38.70
15172;DHT22;7686;52.184;9.280;2023-04-01T03:17:39;26.20;38.70
15172;DHT22;7686;52.184;9.280;2023-04-01T03:20:07;26.20;38.80
15172;DHT22;7686;52.184;9.280;2023-04-01T03:22:35;26.20;38.70
15172;DHT22;7686;52.184;9.280;2023-04-01T03:25:02;26.20;38.80
15172;DHT22;7686;52.184;9.280;2023-04-01T03:27:29;26.20;38.80
15172;DHT22;7686;52.184;9.280;2023-04-01T03:29:56;26.10;38.70
15172;DHT22;7686;52.184;9.280;2023-04-01T03:32:22;26.10;38.70
15172;DHT22;7686;52.184;9.280;2023-04-01T03:34:49;26.20;38.70
15172;DHT22;7686;52.184;9.280;2023-04-01T03:37:16;26.20;38.70
15172;DHT22;7686;52.184;9.280;2023-04-01T03:39:42;26.20;38.70
15172;DHT22;7686;52.184;9.280;2023-04-01T03:42:10;26.20;38.70
15172;DHT22;7686;52.184;9.280;2023-04-01T03:44:36;26.10;38.70
15172;DHT22;7686;52.184;9.280;2023-04-01T03:47:03;26.10;38.70
15172;DHT22;7686;52.184;9.280;2023-04-01T03:49:30;26.20;38.70
15172;DHT22;7686;52.184;9.280;2023-04-01T03:51:58;26.10;38.70
15172;DHT22;7686;52.184;9.280;2023-04-01T03:54:25;26.10;38.70
15172;DHT22;7686;52.184;9.280;2023-04-01T03:56:51;26.10;38.70
15172;DHT22;7686;52.184;9.280;2023-04-01T03:59:18;26.10;38.60
15172;DHT22;7686;52.184;9.280;2023-04-01T04:01:46;26.10;38.70
15172;DHT22;7686;52.184;9.280;2023-04-01T04:04:14;26.10;38.70
15172;DHT22;7686;52.184;9.280;2023-04-01T04:06:41;26.10;38.70
15172;DHT22;7686;52.184;9.280;2023-04-01T04:09:07;26.10;38.70
15172;DHT22;7686;52.184;9.280;2023-04-01T04:11:34;26.10;38.70
15172;DHT22;7686;52.184;9.280;2023-04-01T04:14:00;26.10;38.60
15172;DHT22;7686;52.184;9.280;2023-04-01T04:16:28;26.10;38.60
15172;DHT22;7686;52.184;9.280;2023-04-01T04:18:55;26.10;38.70
15172;DHT22;7686;52.184;9.280;2023-04-01T04:21:22;26.10;38.70
15172;DHT22;7686;52.184;9.280;2023-04-01T04:23:48;26.10;38.60
15172;DHT22;7686;52.184;9.280;2023-04-01T04:26:15;26.10;38.70
15172;DHT22;7686;52.184;9.280;2023-04-01T04:28:42;26.10;38.70
15172;DHT22;7686;52.184;9.280;2023-04-01T04:31:08;26.10;38.60
15172;DHT22;7686;52.184;9.280;2023-04-01T04:33:35;26.10;38.70
15172;DHT22;7686;52.184;9.280;2023-04-01T04:36:03;26.10;38.70
15172;DHT22;7686;52.184;9.280;2023-04-01T04:38:30;26.10;38.70
15172;DHT22;7686;52.184;9.280;2023-04-01T04:40:57;26.00;38.70
15172;DHT22;7686;52.184;9.280;2023-04-01T04:43:24;26.00;38.60
15172;DHT22;7686;52.184;9.280;2023-04-01T04:45:51;26.00;38.60
15172;DHT22;7686;52.184;9.280;2023-04-01T04:48:17;26.10;38.80
15172;DHT22;7686;52.184;9.280;2023-04-01T04:50:47;26.00;38.60
15172;DHT22;7686;52.184;9.280;2023-04-01T04:53:15;26.10;38.70
15172;DHT22;7686;52.184;9.280;2023-04-01T04:55:47;26.00;38.60
15172;DHT22;7686;52.184;9.280;2023-04-01T04:58:14;26.00;38.60
15172;DHT22;7686;52.184;9.280;2023-04-01T05:00:41;26.00;38.60
15172;DHT22;7686;52.184;9.280;2023-04-01T05:03:09;26.00;38.60
15172;DHT22;7686;52.184;9.280;2023-04-01T05:05:36;26.00;38.70
15172;DHT22;7686;52.184;9.280;2023-04-01T05:08:03;26.00;38.70
15172;DHT22;7686;52.184;9.280;2023-04-01T05:10:30;26.00;38.60
15172;DHT22;7686;52.184;9.280;2023-04-01T05:12:58;26.00;38.60
15172;DHT22;7686;52.184;9.280;2023-04-01T05:15:25;26.00;38.60
15172;DHT22;7686;52.184;9.280;2023-04-01T05:17:51;26.00;38.70
15172;DHT22;7686;52.184;9.280;2023-04-01T05:20:18;26.00;38.70
15172;DHT22;7686;52.184;9.280;2023-04-01T05:22:45;26.00;38.70
15172;DHT22;7686;52.184;9.280;2023-04-01T05:25:11;26.00;38.70
15172;DHT22;7686;52.184;9.280;2023-04-01T05:27:38;26.00;39.40
15172;DHT22;7686;52.184;9.280;2023-04-01T05:30:05;26.00;38.80
15172;DHT22;7686;52.184;9.280;2023-04-01T05:32:32;26.00;38.70
15172;DHT22;7686;52.184;9.280;2023-04-01T05:34:59;26.00;38.70
15172;DHT22;7686;52.184;9.280;2023-04-01T05:37:26;26.10;38.90
15172;DHT22;7686;52.184;9.280;2023-04-01T05:39:52;26.00;38.70
15172;DHT22;7686;52.184;9.280;2023-04-01T05:42:19;26.00;38.80
15172;DHT22;7686;52.184;9.280;2023-04-01T05:44:45;26.10;38.80
15172;DHT22;7686;52.184;9.280;2023-04-01T05:47:12;26.00;38.70
15172;DHT22;7686;52.184;9.280;2023-04-01T05:49:39;26.10;38.80
15172;DHT22;7686;52.184;9.280;2023-04-01T05:52:05;26.00;39.50
15172;DHT22;7686;52.184;9.280;2023-04-01T05:54:33;26.00;38.80
15172;DHT22;7686;52.184;9.280;2023-04-01T05:56:59;26.00;38.70
15172;DHT22;7686;52.184;9.280;2023-04-01T05:59:26;26.10;38.90
15172;DHT22;7686;52.184;9.280;2023-04-01T06:01:53;26.10;38.90
15172;DHT22;7686;52.184;9.280;2023-04-01T06:04:19;26.10;39.00
15172;DHT22;7686;52.184;9.280;2023-04-01T06:06:46;26.10;39.00
15172;DHT22;7686;52.184;9.280;2023-04-01T06:09:16;26.10;39.00
15172;DHT22;7686;52.184;9.280;2023-04-01T06:32:22;26.20;39.30
15172;DHT22;7686;52.184;9.280;2023-04-01T06:35:04;26.20;39.30
15172;DHT22;7686;52.184;9.280;2023-04-01T06:44:16;26.20;39.40
15172;DHT22;7686;52.184;9.280;2023-04-01T06:46:58;26.20;39.40
15172;DHT22;7686;52.184;9.280;2023-04-01T06:55:53;26.30;40.30
15172;DHT22;7686;52.184;9.280;2023-04-01T06:58:40;26.30;39.50
15172;DHT22;7686;52.184;9.280;2023-04-01T07:01:14;26.40;39.50
15172;DHT22;7686;52.184;9.280;2023-04-01T07:03:48;26.30;39.50
15172;DHT22;7686;52.184;9.280;2023-04-01T07:06:43;26.30;39.60
15172;DHT22;7686;52.184;9.280;2023-04-01T07:09:18;26.30;39.50
15172;DHT22;7686;52.184;9.280;2023-04-01T07:11:45;26.40;39.50
15172;DHT22;7686;52.184;9.280;2023-04-01T07:14:35;26.40;39.50
15172;DHT22;7686;52.184;9.280;2023-04-01T07:17:11;26.40;39.60
15172;DHT22;7686;52.184;9.280;2023-04-01T07:19:50;26.40;39.60
15172;DHT22;7686;52.184;9.280;2023-04-01T07:24:54;26.40;39.50
15172;DHT22;7686;52.184;9.280;2023-04-01T07:27:24;26.40;39.50
15172;DHT22;7686;52.184;9.280;2023-04-01T07:29:51;26.40;39.60
15172;DHT22;7686;52.184;9.280;2023-04-01T07:34:51;26.40;39.60
15172;DHT22;7686;52.184;9.280;2023-04-01T07:37:39;26.50;39.60
15172;DHT22;7686;52.184;9.280;2023-04-01T07:50:48;26.50;39.50
15172;DHT22;7686;52.184;9.280;2023-04-01T07:56:11;26.50;39.20
15172;DHT22;7686;52.184;9.280;2023-04-01T08:04:36;26.50;39.20
15172;DHT22;7686;52.184;9.280;2023-04-01T08:07:21;26.50;39.30
15172;DHT22;7686;52.184;9.280;2023-04-01T08:10:09;26.50;39.20
15172;DHT22;7686;52.184;9.280;2023-04-01T08:13:10;26.50;39.40
15172;DHT22;7686;52.184;9.280;2023-04-01T08:21:01;26.50;39.40
15172;DHT22;7686;52.184;9.280;2023-04-01T08:23:41;26.50;39.40
15172;DHT22;7686;52.184;9.280;2023-04-01T08:26:30;26.50;39.50
15172;DHT22;7686;52.184;9.280;2023-04-01T08:29:09;26.50;39.40
15172;DHT22;7686;52.184;9.280;2023-04-01T08:31:56;26.50;39.40
15172;DHT22;7686;52.184;9.280;2023-04-01T08:34:33;26.50;39.40
15172;DHT22;7686;52.184;9.280;2023-04-01T08:37:05;26.50;39.40
15172;DHT22;7686;52.184;9.280;2023-04-01T08:39:39;26.50;39.40
15172;DHT22;7686;52.184;9.280;2023-04-01T08:42:31;26.60;39.40
15172;DHT22;7686;52.184;9.280;2023-04-01T08:47:52;26.50;39.30
15172;DHT22;7686;52.184;9.280;2023-04-01T08:56:23;26.50;39.40
15172;DHT22;7686;52.184;9.280;2023-04-01T09:07:40;26.50;39.30
15172;DHT22;7686;52.184;9.280;2023-04-01T09:30:02;26.60;39.40
15172;DHT22;7686;52.184;9.280;2023-04-01T09:41:31;26.60;39.30
15172;DHT22;7686;52.184;9.280;2023-04-01T09:44:48;26.60;39.30
15172;DHT22;7686;52.184;9.280;2023-04-01T09:50:21;26.70;39.30
15172;DHT22;7686;52.184;9.280;2023-04-01T09:53:20;26.70;39.30
15172;DHT22;7686;52.184;9.280;2023-04-01T09:58:54;26.70;39.30
15172;DHT22;7686;52.184;9.280;2023-04-01T10:07:34;26.70;39.20
15172;DHT22;7686;52.184;9.280;2023-04-01T10:41:52;26.80;39.10
15172;DHT22;7686;52.184;9.280;2023-04-01T10:50:36;26.80;39.00
15172;DHT22;7686;52.184;9.280;2023-04-01T10:59:15;26.80;39.00
15172;DHT22;7686;52.184;9.280;2023-04-01T11:04:57;26.80;38.90
15172;DHT22;7686;52.184;9.280;2023-04-01T11:10:54;26.80;38.90
15172;DHT22;7686;52.184;9.280;2023-04-01T11:13:47;26.90;39.10
15172;DHT22;7686;52.184;9.280;2023-04-01T11:19:32;26.80;38.90
15172;DHT22;7686;52.184;9.280;2023-04-01T11:22:22;26.90;39.00
15172;DHT22;7686;52.184;9.280;2023-04-01T11:33:34;26.90;38.90
15172;DHT22;7686;52.184;9.280;2023-04-01T11:36:40;27.00;39.10
15172;DHT22;7686;52.184;9.280;2023-04-01T11:42:06;26.90;39.00
15172;DHT22;7686;52.184;9.280;2023-04-01T11:44:40;26.90;39.10
15172;DHT22;7686;52.184;9.280;2023-04-01T11:52:51;27.00;39.10
15172;DHT22;7686;52.184;9.280;2023-04-01T11:58:23;27.00;39.10
15172;DHT22;7686;52.184;9.280;2023-04-01T12:01:13;27.00;39.00
15172;DHT22;7686;52.184;9.280;2023-04-01T12:12:32;27.00;39.00
15172;DHT22;7686;52.184;9.280;2023-04-01T12:15:36;27.00;39.00
15172;DHT22;7686;52.184;9.280;2023-04-01T12:21:09;27.00;38.90
15172;DHT22;7686;52.184;9.280;2023-04-01T12:26:52;27.00;39.00
15172;DHT22;7686;52.184;9.280;2023-04-01T12:29:58;27.00;39.00
15172;DHT22;7686;52.184;9.280;2023-04-01T12:36:08;27.00;39.00
15172;DHT22;7686;52.184;9.280;2023-04-01T12:38:22;27.10;39.00
15172;DHT22;7686;52.184;9.280;2023-04-01T12:44:11;27.10;39.00
15172;DHT22;7686;52.184;9.280;2023-04-01T12:49:45;27.10;39.00
15172;DHT22;7686;52.184;9.280;2023-04-01T13:00:58;27.10;39.00
15172;DHT22;7686;52.184;9.280;2023-04-01T13:06:29;27.10;38.90
15172;DHT22;7686;52.184;9.280;2023-04-01T13:17:09;27.20;39.00
15172;DHT22;7686;52.184;9.280;2023-04-01T13:19:52;27.20;39.00
15172;DHT22;7686;52.184;9.280;2023-04-01T13:22:38;27.30;39.00
15172;DHT22;7686;52.184;9.280;2023-04-01T13:25:32;27.30;39.00
15172;DHT22;7686;52.184;9.280;2023-04-01T13:30:47;27.30;39.00
15172;DHT22;7686;52.184;9.280;2023-04-01T13:33:21;27.30;39.00
15172;DHT22;7686;52.184;9.280;2023-04-01T13:36:00;27.30;39.00
15172;DHT22;7686;52.184;9.280;2023-04-01T13:44:22;27.40;38.90
15172;DHT22;7686;52.184;9.280;2023-04-01T13:50:26;27.40;38.90
15172;DHT22;7686;52.184;9.280;2023-04-01T14:04:10;27.50;38.90
15172;DHT22;7686;52.184;9.280;2023-04-01T14:10:18;27.50;38.90
15172;DHT22;7686;52.184;9.280;2023-04-01T14:15:17;27.60;39.60
15172;DHT22;7686;52.184;9.280;2023-04-01T14:29:38;27.70;38.80
15172;DHT22;7686;52.184;9.280;2023-04-01T14:49:30;27.90;38.60
15172;DHT22;7686;52.184;9.280;2023-04-01T14:52:27;28.00;38.60
15172;DHT22;7686;52.184;9.280;2023-04-01T14:54:51;28.00;38.60
15172;DHT22;7686;52.184;9.280;2023-04-01T14:57:29;28.00;38.60
15172;DHT22;7686;52.184;9.280;2023-04-01T15:00:09;28.00;38.50
15172;DHT22;7686;52.184;9.280;2023-04-01T15:02:59;28.00;38.50
15172;DHT22;7686;52.184;9.280;2023-04-01T15:08:31;28.10;38.50
15172;DHT22;7686;52.184;9.280;2023-04-01T15:13:55;28.10;38.50
15172;DHT22;7686;52.184;9.280;2023-04-01T15:27:40;28.20;38.50
15172;DHT22;7686;52.184;9.280;2023-04-01T15:33:06;28.20;38.50
15172;DHT22;7686;52.184;9.280;2023-04-01T15:35:43;28.20;38.40
15172;DHT22;7686;52.184;9.280;2023-04-01T15:46:46;28.20;38.30
15172;DHT22;7686;52.184;9.280;2023-04-01T15:49:41;28.20;38.30
15172;DHT22;7686;52.184;9.280;2023-04-01T15:55:39;28.20;38.20
15172;DHT22;7686;52.184;9.280;2023-04-01T15:58:32;28.20;38.20
15172;DHT22;7686;52.184;9.280;2023-04-01T16:01:35;28.10;38.20
15172;DHT22;7686;52.184;9.280;2023-04-01T16:06:56;28.10;38.20
15172;DHT22;7686;52.184;9.280;2023-04-01T16:12:27;28.10;38.20
15172;DHT22;7686;52.184;9.280;2023-04-01T16:15:17;28.00;38.10
15172;DHT22;7686;52.184;9.280;2023-04-01T16:23:42;27.90;38.20
15172;DHT22;7686;52.184;9.280;2023-04-01T16:26:26;27.90;38.20
15172;DHT22;7686;52.184;9.280;2023-04-01T16:36:51;27.80;38.30
15172;DHT22;7686;52.184;9.280;2023-04-01T16:44:52;27.70;38.40
15172;DHT22;7686;52.184;9.280;2023-04-01T16:47:27;27.80;38.40
15172;DHT22;7686;52.184;9.280;2023-04-01T16:50:13;27.70;38.40
15172;DHT22;7686;52.184;9.280;2023-04-01T16:53:01;27.70;38.40
15172;DHT22;7686;52.184;9.280;2023-04-01T16:58:41;27.70;38.60
15172;DHT22;7686;52.184;9.280;2023-04-01T17:01:21;27.60;38.60
15172;DHT22;7686;52.184;9.280;2023-04-01T17:03:52;27.60;38.60
15172;DHT22;7686;52.184;9.280;2023-04-01T17:06:35;27.60;38.70
15172;DHT22;7686;52.184;9.280;2023-04-01T17:09:24;27.60;38.70
15172;DHT22;7686;52.184;9.280;2023-04-01T17:12:13;27.60;38.70
15172;DHT22;7686;52.184;9.280;2023-04-01T17:17:27;27.60;38.70
15172;DHT22;7686;52.184;9.280;2023-04-01T17:22:54;27.60;38.80
15172;DHT22;7686;52.184;9.280;2023-04-01T17:28:41;27.50;38.80
15172;DHT22;7686;52.184;9.280;2023-04-01T17:34:39;27.50;39.00
15172;DHT22;7686;52.184;9.280;2023-04-01T17:48:22;27.40;39.20
15172;DHT22;7686;52.184;9.280;2023-04-01T17:56:40;27.30;39.20
15172;DHT22;7686;52.184;9.280;2023-04-01T17:59:44;27.40;39.20
15172;DHT22;7686;52.184;9.280;2023-04-01T18:05:26;27.30;39.30
15172;DHT22;7686;52.184;9.280;2023-04-01T18:13:19;27.30;39.40
15172;DHT22;7686;52.184;9.280;2023-04-01T18:16:11;27.30;39.50
15172;DHT22;7686;52.184;9.280;2023-04-01T18:26:42;27.20;39.40
15172;DHT22;7686;52.184;9.280;2023-04-01T18:29:30;27.20;39.40
15172;DHT22;7686;52.184;9.280;2023-04-01T18:32:15;27.20;39.50
15172;DHT22;7686;52.184;9.280;2023-04-01T18:37:32;27.20;40.30
15172;DHT22;7686;52.184;9.280;2023-04-01T18:45:51;27.20;39.60
15172;DHT22;7686;52.184;9.280;2023-04-01T18:51:10;27.20;39.50
15172;DHT22;7686;52.184;9.280;2023-04-01T18:56:11;27.10;39.50
15172;DHT22;7686;52.184;9.280;2023-04-01T19:06:57;27.10;39.60
15172;DHT22;7686;52.184;9.280;2023-04-01T19:09:31;27.10;39.60
15172;DHT22;7686;52.184;9.280;2023-04-01T19:20:40;27.00;39.70
15172;DHT22;7686;52.184;9.280;2023-04-01T19:26:22;27.00;39.70
15172;DHT22;7686;52.184;9.280;2023-04-01T19:29:10;27.00;39.70
15172;DHT22;7686;52.184;9.280;2023-04-01T19:34:54;27.00;39.70
15172;DHT22;7686;52.184;9.280;2023-04-01T19:51:37;26.90;39.80
15172;DHT22;7686;52.184;9.280;2023-04-01T20:04:53;26.80;39.80
15172;DHT22;7686;52.184;9.280;2023-04-01T20:07:28;26.80;39.80
15172;DHT22;7686;52.184;9.280;2023-04-01T20:17:53;26.80;39.90
15172;DHT22;7686;52.184;9.280;2023-04-01T20:20:28;26.90;39.90
15172;DHT22;7686;52.184;9.280;2023-04-01T20:23:24;26.80;39.80
15172;DHT22;7686;52.184;9.280;2023-04-01T20:26:03;26.80;39.80
15172;DHT22;7686;52.184;9.280;2023-04-01T20:28:48;26.80;39.80
15172;DHT22;7686;52.184;9.280;2023-04-01T20:31:24;26.80;39.90
15172;DHT22;7686;52.184;9.280;2023-04-01T20:37:23;26.70;39.80
15172;DHT22;7686;52.184;9.280;2023-04-01T20:51:26;26.70;39.70
15172;DHT22;7686;52.184;9.280;2023-04-01T20:56:47;26.70;39.80
15172;DHT22;7686;52.184;9.280;2023-04-01T21:02:10;26.60;39.70
15172;DHT22;7686;52.184;9.280;2023-04-01T21:07:49;26.60;39.70
15172;DHT22;7686;52.184;9.280;2023-04-01T21:10:34;26.60;39.70
15172;DHT22;7686;52.184;9.280;2023-04-01T21:13:21;26.60;39.80
15172;DHT22;7686;52.184;9.280;2023-04-01T21:16:21;26.60;39.70
15172;DHT22;7686;52.184;9.280;2023-04-01T21:19:11;26.60;40.50
15172;DHT22;7686;52.184;9.280;2023-04-01T21:22:05;26.60;39.70
15172;DHT22;7686;52.184;9.280;2023-04-01T21:25:17;26.60;39.80
15172;DHT22;7686;52.184;9.280;2023-04-01T21:28:10;26.50;39.80
15172;DHT22;7686;52.184;9.280;2023-04-01T22:10:41;26.40;39.70
15172;DHT22;7686;52.184;9.280;2023-04-01T22:16:16;26.40;39.60
15172;DHT22;7686;52.184;9.280;2023-04-01T22:24:26;26.40;39.60
15172;DHT22;7686;52.184;9.280;2023-04-01T22:29:34;26.30;39.60
15172;DHT22;7686;52.184;9.280;2023-04-01T22:32:16;26.30;39.60
15172;DHT22;7686;52.184;9.280;2023-04-01T22:34:55;26.40;39.60
15172;DHT22;7686;52.184;9.280;2023-04-01T22:42:44;26.30;39.50
15172;DHT22;7686;52.184;9.280;2023-04-01T22:51:24;26.30;39.60
15172;DHT22;7686;52.184;9.280;2023-04-01T22:54:06;26.30;39.50
15172;DHT22;7686;52.184;9.280;2023-04-01T22:56:56;26.20;39.50
15172;DHT22;7686;52.184;9.280;2023-04-01T23:02:00;26.20;39.50
15172;DHT22;7686;52.184;9.280;2023-04-01T23:04:32;26.20;39.50
15172;DHT22;7686;52.184;9.280;2023-04-01T23:07:04;26.20;39.50
15172;DHT22;7686;52.184;9.280;2023-04-01T23:09:35;26.20;39.50
15172;DHT22;7686;52.184;9.280;2023-04-01T23:12:09;26.20;39.50
15172;DHT22;7686;52.184;9.280;2023-04-01T23:14:49;26.10;39.40
15172;DHT22;7686;52.184;9.280;2023-04-01T23:17:34;26.10;39.50
15172;DHT22;7686;52.184;9.280;2023-04-01T23:20:17;26.10;39.40
15172;DHT22;7686;52.184;9.280;2023-04-01T23:22:56;26.10;39.40
15172;DHT22;7686;52.184;9.280;2023-04-01T23:30:48;26.10;39.40
15172;DHT22;7686;52.184;9.280;2023-04-01T23:38:35;26.10;39.40
15172;DHT22;7686;52.184;9.280;2023-04-01T23:41:03;26.10;39.40
15172;DHT22;7686;52.184;9.280;2023-04-01T23:43:33;26.10;39.40
15172;DHT22;7686;52.184;9.280;2023-04-01T23:46:03;26.10;39.40
15172;DHT22;7686;52.184;9.280;2023-04-01T23:48:37;26.10;39.40
15172;DHT22;7686;52.184;9.280;2023-04-01T23:51:14;26.10;39.40
15172;DHT22;7686;52.184;9.280;2023-04-01T23:53:45;26.10;39.40
15172;DHT22;7686;52.184;9.280;2023-04-01T23:56:15;26.10;39.30
15172;DHT22;7686;52.184;9.280;2023-04-01T23:58:49;26.10;39.30
